Terminal Aerodrome Forecast
Issued by NWS

Home | Current Version | Previous Version | Text Only | Print | Product List | Glossary On
Versions: 1 2 3 4 5 6 7 8 9 10 11 12 13 14 15 16 17 18 19 20 21 22 23 24 25 26
000
FTUS44 KOUN 282320
TAFHBR
TAF
KHBR 282320Z 2900/2924 06005KT P6SM BKN120
     FM290600 12007KT P6SM SCT120
     FM291400 16012G18KT P6SM SCT050 BKN120 PROB30 2918/2924 3SM -RA
      OVC050=

USA.gov is the U.S. government's official web portal to all federal, state and local government web resources and services.